EPLL/LCJ METAR and TAF weather

Enter ICAO airport designator
Station Type Date Time Source
EPLL METAR 2020/07/02 19:30 UTC NOAA

EPLL 021930Z 36004KT CAVOK 23/16 Q1011


Station Type Date Time Source
EPLL Decoded METAR 2020/07/02 19:30 UTC NOAA

Station name not available
Jul 02, 2020 - 03:30 PM EDT / 2020.07.02 1930 UTC
Wind: from the N (360 degrees) at 5 MPH (4 KT):0
Visibility: greater than 7 mile(s):0
Temperature: 73 F (23 C)
Dew Point: 60 F (16 C)
Relative Humidity: 64%
Pressure (altimeter): 29.85 in. Hg (1011 hPa)
ob: EPLL 021930Z 36004KT CAVOK 23/16 Q1011
cycle: 19

Station Type Date Time Source
EPLL TAF 2020/07/02 18:00 UTC NOAA

TAF EPLL 021730Z 0218/0318 VRB03KT CAVOK PROB40
TEMPO 0218/0221 SHRA BKN025CB PROB40 0223/0304 3000 BR BKN003
TEMPO 0306/0318 SHRA BKN020CB PROB40
TEMPO 0308/0312 VRB15G25KT 3000 TSRA
BECMG 0308/0310 31012KT

Example: see airport list